createdAt,value
2022-11-24T00:03:45.877Z,6.26
2022-11-24T00:08:39.402Z,6.24
2022-11-24T00:13:31.095Z,6.22
2022-11-24T00:18:22.769Z,6.18
2022-11-24T00:23:14.550Z,6.13
2022-11-24T00:28:06.167Z,6.06
2022-11-24T00:32:57.801Z,5.99
2022-11-24T00:37:49.470Z,5.94
2022-11-24T00:42:41.196Z,5.94
2022-11-24T00:47:33.029Z,5.92
2022-11-24T00:52:24.646Z,5.95
2022-11-24T00:57:16.426Z,5.92
2022-11-24T01:02:08.109Z,5.90
2022-11-24T01:07:00.266Z,5.89
2022-11-24T01:12:04.349Z,5.92
2022-11-24T01:16:56.730Z,5.97
2022-11-24T01:21:48.717Z,5.99
2022-11-24T01:26:40.439Z,6.02
2022-11-24T01:31:32.947Z,6.00
2022-11-24T01:36:24.940Z,5.97
2022-11-24T01:41:18.201Z,5.93
2022-11-24T01:46:31.496Z,5.91
2022-11-24T01:51:26.804Z,5.90
2022-11-24T01:56:19.468Z,5.91
2022-11-24T02:01:11.741Z,5.95
2022-11-24T02:06:20.230Z,5.97
2022-11-24T02:11:11.916Z,6.00
2022-11-24T02:16:09.020Z,6.02
2022-11-24T02:21:01.484Z,5.99
2022-11-24T02:26:26.585Z,6.04
2022-11-24T02:31:18.588Z,6.02
2022-11-24T02:36:10.321Z,6.01
2022-11-24T02:41:09.008Z,5.99
2022-11-24T02:46:00.779Z,5.95
2022-11-24T02:50:52.410Z,5.95
2022-11-24T02:55:44.137Z,5.97
2022-11-24T03:00:35.796Z,5.99
2022-11-24T03:05:27.440Z,6.00
2022-11-24T03:10:19.090Z,6.02
2022-11-24T03:15:11.379Z,6.02
2022-11-24T03:20:05.121Z,6.04
2022-11-24T03:24:56.952Z,6.03
2022-11-24T03:29:48.581Z,6.01
2022-11-24T03:34:40.251Z,6.02
2022-11-24T03:39:31.876Z,6.06
2022-11-24T03:44:23.685Z,6.12
2022-11-24T03:49:15.309Z,6.16
2022-11-24T03:54:07.254Z,6.18
2022-11-24T03:58:58.807Z,6.17
2022-11-24T04:03:50.468Z,6.20
2022-11-24T04:08:42.116Z,6.20
2022-11-24T04:13:33.752Z,6.21
2022-11-24T04:18:25.532Z,6.20
2022-11-24T04:23:17.643Z,6.23
2022-11-24T04:28:10.140Z,6.22
2022-11-24T04:33:01.903Z,6.14
2022-11-24T04:37:53.939Z,6.16
2022-11-24T04:42:53.889Z,6.14
2022-11-24T04:47:45.505Z,6.10
2022-11-24T04:52:37.336Z,6.03
2022-11-24T04:57:29.687Z,6.00
2022-11-24T05:02:23.051Z,5.97
2022-11-24T05:07:18.861Z,5.97
2022-11-24T05:12:10.933Z,5.91
2022-11-24T05:17:02.566Z,5.87
2022-11-24T05:21:54.444Z,5.85
2022-11-24T05:26:46.247Z,5.79
2022-11-24T05:31:38.053Z,5.75
2022-11-24T05:36:48.531Z,5.67
2022-11-24T05:41:41.972Z,5.65
2022-11-24T05:46:33.863Z,5.60
2022-11-24T05:51:25.557Z,5.52
2022-11-24T05:56:17.321Z,5.45
2022-11-24T06:01:09.044Z,5.42
2022-11-24T06:06:00.941Z,5.33
2022-11-24T06:10:52.585Z,5.32
2022-11-24T06:15:44.214Z,5.29
2022-11-24T06:20:36.676Z,5.25
2022-11-24T06:25:29.394Z,5.24
2022-11-24T06:30:21.321Z,5.20
2022-11-24T06:35:13.602Z,5.19
2022-11-24T06:40:09.092Z,5.15
2022-11-24T06:45:00.836Z,5.11
2022-11-24T06:49:52.639Z,5.07
2022-11-24T06:54:44.436Z,5.07
2022-11-24T06:59:36.125Z,5.05
2022-11-24T07:04:27.968Z,5.06
2022-11-24T07:09:19.616Z,5.07
2022-11-24T07:14:11.347Z,5.04
2022-11-24T07:19:03.234Z,5.04
2022-11-24T07:23:57.263Z,5.04
2022-11-24T07:28:49.630Z,5.04
2022-11-24T07:33:41.454Z,5.07
2022-11-24T07:38:34.060Z,5.11
2022-11-24T07:43:25.731Z,5.12
2022-11-24T07:48:17.420Z,5.19
2022-11-24T07:53:09.113Z,5.22
2022-11-24T07:58:02.017Z,5.27
2022-11-24T08:02:54.202Z,5.34
2022-11-24T08:07:45.960Z,5.38
2022-11-24T08:12:37.804Z,5.47
2022-11-24T08:17:29.591Z,5.52
2022-11-24T08:22:21.735Z,5.57
2022-11-24T08:27:14.589Z,5.62
2022-11-24T08:32:06.835Z,5.69
2022-11-24T08:36:58.825Z,5.76
2022-11-24T08:41:50.639Z,5.82
2022-11-24T08:46:42.285Z,5.87
2022-11-24T08:51:34.107Z,5.93
2022-11-24T08:56:27.491Z,6.03
2022-11-24T09:01:19.342Z,6.09
2022-11-24T09:06:11.396Z,6.17
2022-11-24T09:11:05.729Z,6.24
2022-11-24T09:16:02.207Z,6.27
2022-11-24T09:20:57.467Z,6.33
2022-11-24T09:25:49.264Z,6.43
2022-11-24T09:30:41.030Z,6.50
2022-11-24T09:35:32.668Z,6.57
2022-11-24T09:40:24.477Z,6.61
2022-11-24T09:45:49.056Z,6.67
2022-11-24T09:50:38.365Z,6.79
2022-11-24T09:55:40.701Z,6.89
2022-11-24T10:00:33.865Z,6.99
2022-11-24T10:05:29.515Z,7.09
2022-11-24T10:10:30.061Z,7.11
2022-11-24T10:15:38.228Z,7.13
2022-11-24T10:20:55.013Z,7.17
2022-11-24T10:26:01.605Z,7.18
2022-11-24T10:31:00.454Z,7.28
2022-11-24T10:35:54.856Z,7.44
2022-11-24T10:40:58.183Z,7.56
2022-11-24T10:45:50.366Z,7.58
2022-11-24T10:50:43.116Z,7.68
2022-11-24T10:55:56.774Z,7.76
2022-11-24T11:00:48.449Z,7.87
2022-11-24T11:05:43.802Z,7.94
2022-11-24T11:10:35.549Z,8.03
2022-11-24T11:15:30.851Z,8.16
2022-11-24T11:20:28.307Z,8.24
2022-11-24T11:25:20.138Z,8.30
2022-11-24T11:35:35.152Z,8.44
2022-11-24T11:40:29.337Z,8.48
2022-11-24T11:45:32.194Z,8.54
2022-11-24T11:51:06.477Z,8.63
2022-11-24T11:55:56.066Z,8.66
2022-11-24T12:01:08.029Z,8.75
2022-11-24T12:06:12.202Z,8.86
2022-11-24T12:11:24.453Z,8.93
2022-11-24T12:16:30.898Z,9.01
2022-11-24T12:21:35.211Z,9.03
2022-11-24T12:26:45.635Z,9.06
2022-11-24T12:31:50.308Z,9.08
2022-11-24T12:36:57.454Z,9.15
2022-11-24T12:42:10.161Z,9.18
2022-11-24T12:47:14.045Z,9.20
2022-11-24T12:52:20.055Z,9.25
2022-11-24T12:57:34.697Z,9.28
2022-11-24T13:02:29.338Z,9.30
2022-11-24T13:07:49.299Z,9.30
2022-11-24T13:13:14.689Z,9.28
2022-11-24T13:18:47.221Z,9.22
2022-11-24T13:23:39.483Z,9.13
2022-11-24T13:29:06.164Z,8.60
2022-11-24T13:34:50.034Z,8.02
2022-11-24T13:40:14.185Z,7.69
2022-11-24T13:45:45.332Z,7.56
2022-11-24T13:50:55.022Z,7.47
2022-11-24T13:56:12.775Z,7.35
2022-11-24T14:01:11.696Z,7.21
2022-11-24T14:06:04.393Z,7.10
2022-11-24T14:10:58.395Z,6.99
2022-11-24T14:16:05.141Z,6.96
2022-11-24T14:20:58.774Z,6.94
2022-11-24T14:25:51.917Z,6.96
2022-11-24T14:30:43.622Z,6.99
2022-11-24T14:35:36.184Z,7.10
2022-11-24T14:40:55.105Z,7.27
2022-11-24T14:46:09.378Z,7.34
2022-11-24T14:51:13.354Z,7.33
2022-11-24T14:56:23.894Z,7.27
2022-11-24T15:01:28.495Z,7.27
2022-11-24T15:06:21.481Z,7.26
2022-11-24T15:11:14.084Z,7.32
2022-11-24T15:16:19.268Z,7.37
2022-11-24T15:21:17.221Z,7.37
2022-11-24T15:26:13.757Z,7.35
2022-11-24T15:31:09.751Z,7.34
2022-11-24T15:36:01.486Z,7.28
2022-11-24T15:40:55.703Z,7.31
2022-11-24T15:45:47.572Z,7.30
2022-11-24T15:50:39.620Z,7.26
2022-11-24T15:55:32.558Z,7.21
2022-11-24T16:00:24.494Z,7.20
2022-11-24T16:05:18.032Z,7.22
2022-11-24T16:10:25.149Z,7.25
2022-11-24T16:15:17.097Z,7.22
2022-11-24T16:20:09.415Z,7.27
2022-11-24T16:25:01.171Z,7.30
2022-11-24T16:29:52.917Z,7.34
2022-11-24T16:34:44.536Z,7.41
2022-11-24T16:39:36.324Z,7.40
2022-11-24T16:44:28.064Z,7.40
2022-11-24T16:49:19.921Z,7.34
2022-11-24T16:54:11.868Z,7.26
2022-11-24T16:59:03.735Z,7.16
2022-11-24T17:03:55.425Z,7.11
2022-11-24T17:08:50.029Z,7.06
2022-11-24T17:13:42.810Z,7.03
2022-11-24T17:18:35.034Z,6.98
2022-11-24T17:23:27.223Z,6.87
2022-11-24T17:28:19.520Z,6.82
2022-11-24T17:33:11.699Z,6.81
2022-11-24T17:38:03.715Z,6.78
2022-11-24T17:43:02.278Z,6.75
2022-11-24T17:47:54.201Z,6.79
2022-11-24T17:52:45.802Z,6.77
2022-11-24T17:57:37.581Z,6.77
2022-11-24T18:02:29.357Z,6.73
2022-11-24T18:07:21.165Z,6.74
2022-11-24T18:12:13.301Z,6.67
2022-11-24T18:17:05.017Z,6.62
2022-11-24T18:21:56.653Z,6.62
2022-11-24T18:26:48.569Z,6.58
2022-11-24T18:31:40.347Z,6.52
2022-11-24T18:36:32.855Z,6.46
2022-11-24T18:41:24.594Z,6.40
2022-11-24T18:46:18.239Z,6.38
2022-11-24T18:51:14.737Z,6.34
2022-11-24T18:56:08.242Z,6.35
2022-11-24T19:01:13.193Z,6.31
2022-11-24T19:06:07.011Z,6.31
2022-11-24T19:10:59.416Z,6.28
2022-11-24T19:15:52.089Z,6.23
2022-11-24T19:20:43.876Z,6.24
2022-11-24T19:25:35.630Z,6.21
2022-11-24T19:30:29.424Z,6.23
2022-11-24T19:35:21.383Z,6.22
2022-11-24T19:40:13.778Z,6.21
2022-11-24T19:45:06.185Z,6.24
2022-11-24T19:49:57.917Z,6.24
2022-11-24T19:54:49.642Z,6.26
2022-11-24T19:59:41.994Z,6.25
2022-11-24T20:04:38.316Z,6.28
2022-11-24T20:09:30.239Z,6.29
2022-11-24T20:14:22.145Z,6.24
2022-11-24T20:19:15.898Z,6.26
2022-11-24T20:24:13.558Z,6.23
2022-11-24T20:29:06.421Z,6.19
2022-11-24T20:34:00.165Z,6.15
2022-11-24T20:38:53.315Z,6.14
2022-11-24T20:43:46.306Z,6.14
2022-11-24T20:48:38.508Z,6.09
2022-11-24T20:53:30.368Z,6.05
2022-11-24T20:58:22.026Z,6.05
2022-11-24T21:03:13.631Z,6.04
2022-11-24T21:08:05.767Z,6.01
2022-11-24T21:12:57.485Z,5.96
2022-11-24T21:17:49.594Z,5.98
2022-11-24T21:22:41.275Z,5.97
2022-11-24T21:27:32.957Z,5.99
2022-11-24T21:32:26.601Z,5.99
2022-11-24T21:37:18.352Z,6.00
2022-11-24T21:42:09.991Z,6.00
2022-11-24T21:47:01.780Z,6.06
2022-11-24T21:51:56.039Z,6.09
2022-11-24T21:56:48.168Z,6.15
2022-11-24T22:01:40.103Z,6.23
2022-11-24T22:06:33.378Z,6.25
2022-11-24T22:11:27.064Z,6.28
2022-11-24T22:16:21.898Z,6.24
2022-11-24T22:21:16.520Z,6.22
2022-11-24T22:26:11.280Z,6.19
2022-11-24T22:31:08.373Z,6.16
2022-11-24T22:36:01.187Z,6.16
2022-11-24T22:40:53.163Z,6.20
2022-11-24T22:45:45.034Z,6.21
2022-11-24T22:50:36.757Z,6.25
2022-11-24T22:55:28.432Z,6.31
2022-11-24T23:00:20.171Z,6.36
2022-11-24T23:05:14.705Z,6.44
2022-11-24T23:10:10.257Z,6.50
2022-11-24T23:15:02.063Z,6.57
2022-11-24T23:19:53.777Z,6.61
2022-11-24T23:24:45.508Z,6.65
2022-11-24T23:29:37.234Z,6.70
2022-11-24T23:34:28.882Z,6.71
2022-11-24T23:39:20.506Z,6.76
2022-11-24T23:44:12.155Z,6.79
2022-11-24T23:49:03.867Z,6.81
2022-11-24T23:53:56.573Z,6.82
2022-11-24T23:58:49.064Z,6.86
